Time;durP1;ratioP1;P1;durP2;ratioP2;P2;SDS_P1;SDS_P2;PMS_P1;PMS_P2;Temp;Humidity;BMP_temperature;BMP_pressure;BME280_temperature;BME280_humidity;BME280_pressure;Samples;Min_cycle;Max_cycle;Signal;HPM_P1;HPM_P2
2023/09/14 00:01:35;;;;;;;1.30;1.20;;;25.10;54.20;;;;;;5084286;27;45375;-65
2023/09/14 00:04:03;;;;;;;1.42;1.30;;;25.10;54.10;;;;;;5086927;27;45446;-66
2023/09/14 00:06:30;;;;;;;2.25;1.20;;;25.00;54.10;;;;;;5087205;27;45302;-65
2023/09/14 00:08:57;;;;;;;1.20;1.02;;;25.00;54.10;;;;;;5087302;27;45173;-64
2023/09/14 00:11:24;;;;;;;1.23;1.10;;;25.00;54.30;;;;;;5086809;27;45325;-65
2023/09/14 00:13:51;;;;;;;1.10;1.00;;;25.00;54.10;;;;;;5086660;27;45242;-65
2023/09/14 00:16:18;;;;;;;1.20;1.10;;;25.00;54.10;;;;;;5086937;27;45363;-66
2023/09/14 00:18:44;;;;;;;1.45;1.05;;;25.00;54.10;;;;;;5087075;27;45317;-65
2023/09/14 00:21:12;;;;;;;1.08;1.08;;;25.00;54.10;;;;;;5086596;27;45305;-65
2023/09/14 00:23:39;;;;;;;1.23;1.13;;;25.00;54.10;;;;;;5086602;27;45259;-65
2023/09/14 00:26:06;;;;;;;1.33;1.23;;;25.00;54.10;;;;;;5086848;27;45371;-65
2023/09/14 00:28:33;;;;;;;1.23;1.05;;;25.00;54.10;;;;;;5086988;27;45275;-66
2023/09/14 00:31:00;;;;;;;1.17;1.08;;;25.00;54.10;;;;;;5086636;27;46406;-65
2023/09/14 00:33:27;;;;;;;1.33;1.23;;;25.00;54.10;;;;;;5086454;27;45323;-65
2023/09/14 00:35:53;;;;;;;1.20;1.10;;;24.90;54.10;;;;;;5086678;27;45297;-65
2023/09/14 00:38:22;;;;;;;1.30;1.20;;;24.90;54.10;;;;;;5087016;27;45382;-65
2023/09/14 00:40:50;;;;;;;2.00;1.02;;;24.90;54.10;;;;;;5086377;27;45448;-65
2023/09/14 00:43:17;;;;;;;1.67;0.95;;;24.90;54.00;;;;;;5086059;28;45315;-65
2023/09/14 00:45:44;;;;;;;1.00;1.00;;;24.90;54.10;;;;;;5086561;27;45387;-66
2023/09/14 00:48:10;;;;;;;1.30;1.20;;;24.90;54.10;;;;;;5086642;27;45290;-65
2023/09/14 00:50:37;;;;;;;1.48;1.13;;;24.80;54.00;;;;;;5086275;27;45383;-65
2023/09/14 00:53:05;;;;;;;1.48;1.38;;;24.80;54.00;;;;;;5086196;27;45421;-65
2023/09/14 00:55:33;;;;;;;0.90;0.90;;;24.80;54.00;;;;;;5086302;27;45315;-65
2023/09/14 00:58:00;;;;;;;1.10;1.10;;;24.80;54.10;;;;;;5086571;27;45333;-65
2023/09/14 01:00:27;;;;;;;1.20;1.10;;;24.80;54.00;;;;;;5086126;27;46394;-65
2023/09/14 01:02:56;;;;;;;3.40;1.00;;;24.80;54.00;;;;;;5086046;27;45253;-65
2023/09/14 01:05:23;;;;;;;1.35;1.02;;;24.80;54.00;;;;;;5086205;27;45331;-65
2023/09/14 01:07:50;;;;;;;1.80;1.27;;;24.80;54.00;;;;;;5086215;27;45388;-65
2023/09/14 01:10:17;;;;;;;1.88;1.00;;;24.70;54.00;;;;;;5085915;27;45484;-65
2023/09/14 01:12:46;;;;;;;0.93;0.93;;;24.70;54.00;;;;;;5085894;27;45374;-65
2023/09/14 01:15:16;;;;;;;1.20;1.10;;;24.70;54.00;;;;;;5086103;27;45331;-65
2023/09/14 01:17:47;;;;;;;1.40;1.30;;;24.70;54.00;;;;;;5086190;27;45277;-65
2023/09/14 01:20:36;;;;;;;1.30;1.17;;;24.70;54.00;;;;;;5085711;27;46414;-66
2023/09/14 01:23:09;;;;;;;2.15;1.20;;;24.70;54.00;;;;;;5083831;27;45390;-65
2023/09/14 01:25:41;;;;;;;1.00;1.00;;;24.70;53.90;;;;;;5085893;27;45397;-65
2023/09/14 01:28:08;;;;;;;0.98;0.90;;;24.70;53.90;;;;;;5086143;27;45165;-65
2023/09/14 01:30:37;;;;;;;1.85;1.20;;;24.70;54.00;;;;;;5085692;27;47272;-66
2023/09/14 01:33:04;;;;;;;1.35;1.00;;;24.60;53.90;;;;;;5085537;27;45470;-65
2023/09/14 01:35:31;;;;;;;2.00;1.25;;;24.60;54.00;;;;;;5085786;27;45272;-65
2023/09/14 01:37:58;;;;;;;1.20;1.08;;;24.60;53.90;;;;;;5085944;27;45322;-65
2023/09/14 01:40:25;;;;;;;1.05;1.05;;;24.60;53.90;;;;;;5085449;27;46752;-64
2023/09/14 01:42:53;;;;;;;0.95;0.95;;;24.60;54.00;;;;;;5085391;27;45474;-65
2023/09/14 01:45:20;;;;;;;1.15;1.10;;;24.60;53.90;;;;;;5085759;27;45359;-65
2023/09/14 01:47:49;;;;;;;1.17;1.00;;;24.60;53.90;;;;;;5085838;27;45291;-64
2023/09/14 01:50:16;;;;;;;1.30;1.20;;;24.50;53.90;;;;;;5085526;27;47582;-65
2023/09/14 01:52:42;;;;;;;1.00;0.90;;;24.50;53.90;;;;;;5085344;27;45382;-65
2023/09/14 01:55:10;;;;;;;1.25;1.15;;;24.50;53.90;;;;;;5085690;27;45320;-65
2023/09/14 01:57:37;;;;;;;1.33;1.10;;;24.50;53.90;;;;;;5085788;27;45323;-65
2023/09/14 02:00:06;;;;;;;1.05;1.05;;;24.50;53.90;;;;;;5085197;27;46395;-65
2023/09/14 02:02:33;;;;;;;1.00;1.00;;;24.50;53.80;;;;;;5085177;27;45432;-65
2023/09/14 02:05:00;;;;;;;1.02;1.02;;;24.50;53.90;;;;;;5085569;27;45434;-65
2023/09/14 02:07:27;;;;;;;1.10;1.10;;;24.50;53.90;;;;;;5085656;27;45253;-65
2023/09/14 02:09:53;;;;;;;1.30;1.20;;;24.50;53.90;;;;;;5085214;27;45323;-65
2023/09/14 02:12:20;;;;;;;1.83;1.20;;;24.50;53.90;;;;;;5085083;27;45437;-65
2023/09/14 02:14:47;;;;;;;1.42;1.33;;;24.40;53.80;;;;;;5085589;27;45345;-65
2023/09/14 02:17:16;;;;;;;1.40;1.27;;;24.40;53.80;;;;;;5085471;27;45346;-65
2023/09/14 02:19:43;;;;;;;1.15;1.05;;;24.40;53.80;;;;;;5088200;27;45299;-65
2023/09/14 02:22:10;;;;;;;1.15;1.08;;;24.40;53.80;;;;;;5088575;27;45340;-64
2023/09/14 02:24:37;;;;;;;1.33;0.93;;;24.40;53.80;;;;;;5088682;27;45365;-65
2023/09/14 02:27:04;;;;;;;1.33;1.00;;;24.40;53.80;;;;;;5088949;27;45399;-65
2023/09/14 02:29:31;;;;;;;1.85;1.10;;;24.40;53.80;;;;;;5088473;27;45339;-66
2023/09/14 02:31:59;;;;;;;1.02;1.02;;;24.30;53.70;;;;;;5088848;27;45310;-65
2023/09/14 02:34:27;;;;;;;0.95;0.82;;;24.30;53.80;;;;;;5088598;27;45317;-65
2023/09/14 02:36:54;;;;;;;1.65;1.00;;;24.30;53.80;;;;;;5088844;27;45386;-65
2023/09/14 02:39:21;;;;;;;1.20;1.10;;;24.30;53.80;;;;;;5088341;27;47583;-65
2023/09/14 02:41:48;;;;;;;1.30;1.20;;;24.30;53.80;;;;;;5088158;27;45398;-65
2023/09/14 02:44:14;;;;;;;1.00;0.90;;;24.30;53.80;;;;;;5088408;27;45196;-66
2023/09/14 02:46:41;;;;;;;1.17;1.08;;;24.30;53.90;;;;;;5088547;27;45414;-65
2023/09/14 02:49:08;;;;;;;2.63;1.10;;;24.30;53.90;;;;;;5088191;27;45419;-65
2023/09/14 02:51:36;;;;;;;1.15;1.08;;;24.20;53.80;;;;;;5088202;27;45442;-65
2023/09/14 02:54:03;;;;;;;1.15;1.15;;;24.20;53.80;;;;;;5088225;27;45301;-65
2023/09/14 02:56:30;;;;;;;1.05;0.90;;;24.20;53.90;;;;;;5088465;27;45620;-65
2023/09/14 02:58:58;;;;;;;2.13;1.15;;;24.20;53.80;;;;;;5088038;27;46669;-65
2023/09/14 03:01:25;;;;;;;2.28;1.00;;;24.20;53.90;;;;;;5088050;27;45298;-64
2023/09/14 03:03:51;;;;;;;1.10;1.10;;;24.20;53.90;;;;;;5087974;27;45320;-65
2023/09/14 03:06:18;;;;;;;1.10;1.10;;;24.20;53.80;;;;;;5088335;27;45351;-66
2023/09/14 03:08:46;;;;;;;0.88;0.88;;;24.20;53.80;;;;;;5087840;27;45265;-66
2023/09/14 03:11:13;;;;;;;1.00;1.00;;;24.10;53.80;;;;;;5087787;27;45384;-65
2023/09/14 03:13:40;;;;;;;1.20;1.10;;;24.10;53.80;;;;;;5087908;27;45382;-64
2023/09/14 03:16:07;;;;;;;1.30;1.20;;;24.10;53.80;;;;;;5088198;27;45280;-65
2023/09/14 03:18:33;;;;;;;1.10;1.00;;;24.10;53.80;;;;;;5087647;27;45535;-65
2023/09/14 03:21:00;;;;;;;2.65;1.23;;;24.10;53.90;;;;;;5087794;27;45577;-65
2023/09/14 03:23:27;;;;;;;0.82;0.82;;;24.10;53.80;;;;;;5087700;27;45325;-65
2023/09/14 03:25:56;;;;;;;1.30;1.20;;;24.10;53.80;;;;;;5087894;27;45443;-65
2023/09/14 03:28:23;;;;;;;1.02;1.02;;;24.10;53.80;;;;;;5087537;27;46301;-65
2023/09/14 03:30:50;;;;;;;1.27;1.00;;;24.10;53.80;;;;;;5086391;27;45265;-65
2023/09/14 03:33:17;;;;;;;0.90;0.90;;;24.10;54.10;;;;;;5087514;27;45446;-65
2023/09/14 03:35:44;;;;;;;1.83;1.08;;;24.10;53.80;;;;;;5087759;27;45446;-65
2023/09/14 03:38:11;;;;;;;1.15;1.13;;;24.10;53.80;;;;;;5087443;27;46417;-65
2023/09/14 03:40:38;;;;;;;1.02;1.02;;;24.10;53.90;;;;;;5087330;27;45321;-65
2023/09/14 03:43:06;;;;;;;1.17;1.10;;;24.10;53.90;;;;;;5087106;27;45337;-64
2023/09/14 03:45:33;;;;;;;1.27;1.17;;;24.10;53.80;;;;;;5087642;27;45320;-65
2023/09/14 03:47:59;;;;;;;1.00;1.00;;;24.10;53.80;;;;;;5087172;27;46401;-65
2023/09/14 03:50:26;;;;;;;1.33;1.20;;;24.10;53.80;;;;;;5087238;27;45305;-66
2023/09/14 03:52:53;;;;;;;1.13;1.00;;;24.10;53.80;;;;;;5087288;27;45340;-66
2023/09/14 03:55:20;;;;;;;2.67;1.17;;;24.10;53.80;;;;;;5087616;27;45323;-65
2023/09/14 03:57:48;;;;;;;0.93;0.93;;;24.10;53.80;;;;;;5087169;27;47479;-65
2023/09/14 04:00:17;;;;;;;1.27;1.00;;;24.10;53.80;;;;;;5087089;27;45287;-65
2023/09/14 04:02:44;;;;;;;1.13;1.13;;;24.00;53.80;;;;;;5087131;27;45309;-64
2023/09/14 04:05:12;;;;;;;1.20;1.10;;;24.00;53.80;;;;;;5087368;27;45532;-65
2023/09/14 04:07:39;;;;;;;1.15;1.05;;;24.00;53.80;;;;;;5086878;27;47350;-65
2023/09/14 04:10:10;;;;;;;1.27;1.17;;;24.00;53.80;;;;;;5086967;27;45386;-65
2023/09/14 04:12:37;;;;;;;1.10;1.00;;;24.00;53.80;;;;;;5087104;27;45337;-65
2023/09/14 04:15:05;;;;;;;1.00;1.00;;;24.00;53.70;;;;;;5087151;27;45440;-65
2023/09/14 04:17:34;;;;;;;1.30;1.23;;;23.90;53.70;;;;;;5086776;27;46689;-65
2023/09/14 04:20:00;;;;;;;0.85;0.85;;;23.90;53.70;;;;;;5086747;27;45206;-64
2023/09/14 04:22:27;;;;;;;1.52;1.25;;;23.90;53.70;;;;;;5086737;27;45453;-65
2023/09/14 04:24:54;;;;;;;0.88;0.88;;;23.90;53.80;;;;;;5087066;27;45349;-66
2023/09/14 04:27:21;;;;;;;1.20;1.00;;;23.90;53.90;;;;;;5086711;27;45700;-65
2023/09/14 04:29:48;;;;;;;3.42;1.40;;;23.90;53.80;;;;;;5086527;27;45334;-65
2023/09/14 04:32:15;;;;;;;1.15;1.15;;;23.90;53.90;;;;;;5086690;27;45347;-66
2023/09/14 04:34:43;;;;;;;1.00;1.00;;;23.90;53.80;;;;;;5086920;27;45219;-65
2023/09/14 04:37:09;;;;;;;1.23;1.20;;;23.90;53.80;;;;;;5086481;27;46346;-65
2023/09/14 04:39:36;;;;;;;0.98;0.98;;;23.90;53.80;;;;;;5086380;27;45389;-65
2023/09/14 04:42:03;;;;;;;1.05;0.98;;;23.90;53.80;;;;;;5085839;27;45308;-65
2023/09/14 04:44:30;;;;;;;1.35;1.10;;;23.90;54.00;;;;;;5086834;27;45297;-65
2023/09/14 04:46:57;;;;;;;1.10;1.10;;;23.90;53.80;;;;;;5086356;27;46553;-65
2023/09/14 04:49:24;;;;;;;1.23;1.13;;;23.80;53.70;;;;;;5086399;27;45333;-65
2023/09/14 04:51:52;;;;;;;0.80;0.80;;;23.90;53.80;;;;;;5086270;27;45374;-65
2023/09/14 04:54:19;;;;;;;1.13;1.02;;;23.80;53.70;;;;;;5086543;27;45246;-65
2023/09/14 04:56:46;;;;;;;1.05;1.00;;;23.80;53.70;;;;;;5086053;27;46388;-65
2023/09/14 04:59:13;;;;;;;3.83;1.35;;;23.80;53.80;;;;;;5086081;27;45327;-64
2023/09/14 05:01:39;;;;;;;1.38;1.10;;;23.80;53.70;;;;;;5086139;27;45284;-65
2023/09/14 05:04:06;;;;;;;1.15;1.15;;;23.80;53.80;;;;;;5086309;27;45370;-65
2023/09/14 05:06:33;;;;;;;1.45;1.10;;;23.80;53.80;;;;;;5086322;27;45363;-65
2023/09/14 05:09:02;;;;;;;2.42;1.10;;;23.80;53.80;;;;;;5086324;27;45290;-65
2023/09/14 05:11:29;;;;;;;3.25;1.20;;;23.80;53.80;;;;;;5086225;27;45367;-64
2023/09/14 05:13:56;;;;;;;1.00;1.00;;;23.80;53.70;;;;;;5086420;27;45422;-65
2023/09/14 05:16:23;;;;;;;0.82;0.82;;;23.80;53.70;;;;;;5085926;27;47493;-65
2023/09/14 05:18:49;;;;;;;1.20;1.10;;;23.80;53.70;;;;;;5085826;27;45324;-65
2023/09/14 05:21:16;;;;;;;1.10;1.10;;;23.80;53.70;;;;;;5086114;27;45245;-65
2023/09/14 05:23:43;;;;;;;0.95;0.95;;;23.80;53.70;;;;;;5085967;27;45336;-65
2023/09/14 05:26:11;;;;;;;1.15;1.10;;;23.80;53.70;;;;;;5085653;27;45463;-64
2023/09/14 05:28:38;;;;;;;1.25;1.15;;;23.80;53.70;;;;;;5086018;27;45263;-65
2023/09/14 05:31:05;;;;;;;1.85;1.20;;;23.80;53.70;;;;;;5085891;27;45336;-65
2023/09/14 05:33:32;;;;;;;2.60;1.23;;;23.80;53.70;;;;;;5085945;27;45457;-65
2023/09/14 05:35:59;;;;;;;1.20;1.10;;;23.80;53.70;;;;;;5085633;27;45263;-65
2023/09/14 05:38:26;;;;;;;1.30;1.20;;;23.80;53.60;;;;;;5085696;27;45321;-64
2023/09/14 05:40:53;;;;;;;1.05;1.00;;;23.80;53.70;;;;;;5085728;27;45322;-65
2023/09/14 05:43:21;;;;;;;1.00;1.00;;;23.80;53.60;;;;;;5085438;27;45403;-64
2023/09/14 05:45:50;;;;;;;1.25;1.13;;;23.80;53.60;;;;;;5085479;27;45423;-66
2023/09/14 05:48:17;;;;;;;1.00;1.00;;;23.80;53.60;;;;;;5085435;27;45297;-64
2023/09/14 05:50:44;;;;;;;1.17;0.90;;;23.80;53.60;;;;;;5085731;27;45310;-64
2023/09/14 05:53:11;;;;;;;1.80;1.23;;;23.80;53.60;;;;;;5086515;27;45279;-64
2023/09/14 05:55:38;;;;;;;1.35;1.00;;;23.80;53.60;;;;;;5089287;27;46121;-66
2023/09/14 05:58:05;;;;;;;1.25;1.15;;;23.80;53.70;;;;;;5088912;27;45246;-65
2023/09/14 06:00:33;;;;;;;2.25;1.10;;;23.80;53.60;;;;;;5087840;28;45430;-66
2023/09/14 06:03:00;;;;;;;1.85;1.08;;;23.80;53.60;;;;;;5089164;27;45311;-65
2023/09/14 06:05:27;;;;;;;1.30;1.20;;;23.80;53.60;;;;;;5089073;27;45427;-65
2023/09/14 06:07:54;;;;;;;2.65;1.20;;;23.80;53.60;;;;;;5088766;27;45315;-65
2023/09/14 06:10:21;;;;;;;1.42;1.10;;;23.80;53.60;;;;;;5088955;27;45471;-66
2023/09/14 06:12:48;;;;;;;1.23;1.17;;;23.80;53.60;;;;;;5088878;27;45399;-66
2023/09/14 06:15:14;;;;;;;2.45;1.27;;;23.80;53.60;;;;;;5088637;27;45493;-65
2023/09/14 06:17:43;;;;;;;1.30;1.20;;;23.80;53.60;;;;;;5088753;27;45198;-66
2023/09/14 06:20:10;;;;;;;1.25;1.15;;;23.80;53.60;;;;;;5088992;27;45259;-66
2023/09/14 06:22:37;;;;;;;1.40;1.30;;;23.80;53.60;;;;;;5088752;27;45549;-65
2023/09/14 06:25:04;;;;;;;1.52;1.17;;;23.80;53.60;;;;;;5088616;27;46541;-65
2023/09/14 06:27:31;;;;;;;1.17;1.08;;;23.80;53.60;;;;;;5088415;27;45349;-65
2023/09/14 06:29:58;;;;;;;1.20;1.10;;;23.80;53.60;;;;;;5088677;27;45346;-65
2023/09/14 06:32:25;;;;;;;1.98;1.10;;;23.80;53.60;;;;;;5088549;27;45497;-66
2023/09/14 06:34:53;;;;;;;1.80;1.25;;;23.80;53.60;;;;;;5088687;27;46370;-65
2023/09/14 06:37:20;;;;;;;1.60;0.93;;;23.80;53.60;;;;;;5088231;27;45302;-65
2023/09/14 06:39:47;;;;;;;1.42;1.30;;;23.80;53.50;;;;;;5088582;27;45323;-65
2023/09/14 06:42:14;;;;;;;1.48;1.38;;;23.80;53.50;;;;;;5088053;27;45443;-65
2023/09/14 06:44:40;;;;;;;1.52;1.20;;;23.80;53.50;;;;;;5088201;27;45315;-65
2023/09/14 06:47:07;;;;;;;1.48;1.30;;;23.80;53.50;;;;;;5088404;27;45388;-65
2023/09/14 06:49:34;;;;;;;1.92;1.15;;;23.90;53.50;;;;;;5088481;27;45427;-66
2023/09/14 06:52:03;;;;;;;1.58;1.10;;;23.90;53.50;;;;;;5088178;27;45384;-66
2023/09/14 06:54:29;;;;;;;0.90;0.90;;;23.90;53.50;;;;;;5088099;27;45366;-66
2023/09/14 06:56:56;;;;;;;1.27;1.17;;;23.90;53.50;;;;;;5088256;27;45439;-65
2023/09/14 06:59:29;;;;;;;2.20;1.23;;;23.90;53.50;;;;;;5088158;27;45311;-65
2023/09/14 07:01:56;;;;;;;1.08;1.05;;;23.90;53.50;;;;;;5088008;27;45421;-65
2023/09/14 07:04:22;;;;;;;1.33;1.23;;;23.90;53.40;;;;;;5087686;27;45288;-65
2023/09/14 07:06:49;;;;;;;1.25;1.15;;;23.90;53.50;;;;;;5087843;27;45197;-65
2023/09/14 07:09:18;;;;;;;1.30;1.20;;;23.90;53.40;;;;;;5088069;27;45181;-65
2023/09/14 07:11:44;;;;;;;2.72;1.10;;;23.90;53.40;;;;;;5087973;27;45408;-66
2023/09/14 07:14:11;;;;;;;1.60;1.10;;;23.90;53.40;;;;;;5087692;27;45462;-65
2023/09/14 07:16:38;;;;;;;1.58;1.13;;;24.00;53.40;;;;;;5087775;27;45328;-66
2023/09/14 07:19:05;;;;;;;1.17;1.08;;;24.00;53.40;;;;;;5087908;27;45392;-65
2023/09/14 07:21:36;;;;;;;1.30;1.20;;;24.00;53.40;;;;;;5087662;27;45470;-65
2023/09/14 07:24:04;;;;;;;1.42;1.20;;;24.00;53.30;;;;;;5087404;27;46642;-65
2023/09/14 07:26:32;;;;;;;1.23;1.13;;;24.00;53.30;;;;;;5087641;27;45199;-66
2023/09/14 07:28:59;;;;;;;1.52;1.35;;;24.00;53.30;;;;;;5087855;27;45300;-65
2023/09/14 07:31:26;;;;;;;1.55;1.45;;;24.00;53.30;;;;;;5087738;27;45486;-66
2023/09/14 07:33:53;;;;;;;1.52;1.30;;;24.00;53.30;;;;;;5087845;27;45441;-65
2023/09/14 07:36:20;;;;;;;2.03;1.42;;;24.00;53.40;;;;;;5087429;27;45294;-66
2023/09/14 07:38:47;;;;;;;1.42;1.25;;;24.00;53.40;;;;;;5087704;27;45237;-66
2023/09/14 07:41:14;;;;;;;1.40;1.30;;;24.00;53.50;;;;;;5087639;27;45435;-66
2023/09/14 07:43:42;;;;;;;2.22;1.45;;;24.00;53.40;;;;;;5086891;27;45471;-66
2023/09/14 07:46:09;;;;;;;1.88;1.27;;;24.00;53.40;;;;;;5087540;27;45345;-66
2023/09/14 07:48:36;;;;;;;1.33;1.23;;;24.10;53.60;;;;;;5087327;27;45258;-66
2023/09/14 07:51:03;;;;;;;1.50;1.40;;;24.10;53.60;;;;;;5080938;27;45611;-66
2023/09/14 07:53:30;;;;;;;1.40;1.30;;;24.10;53.60;;;;;;5079617;28;45402;-66
2023/09/14 07:55:57;;;;;;;3.45;1.40;;;24.10;53.60;;;;;;5087000;27;45408;-66
2023/09/14 07:58:24;;;;;;;1.30;1.20;;;24.10;53.60;;;;;;5087047;27;45393;-66
2023/09/14 08:00:52;;;;;;;1.60;1.50;;;24.10;53.50;;;;;;5087316;27;45475;-66
2023/09/14 08:03:19;;;;;;;3.90;1.48;;;24.10;53.40;;;;;;5086756;27;45348;-66
2023/09/14 08:05:46;;;;;;;1.55;1.20;;;24.10;53.40;;;;;;5087587;27;45405;-66
2023/09/14 08:08:13;;;;;;;6.05;2.03;;;24.10;54.00;;;;;;5079028;27;45525;-66
2023/09/14 08:10:40;;;;;;;1.73;1.33;;;24.10;53.50;;;;;;5075979;28;45173;-65
2023/09/14 08:13:07;;;;;;;1.65;1.50;;;24.10;53.40;;;;;;5080323;28;46368;-64
2023/09/14 08:15:33;;;;;;;1.80;1.50;;;24.10;53.50;;;;;;5068078;28;45756;-64
2023/09/14 08:18:02;;;;;;;2.13;1.67;;;24.20;53.60;;;;;;5067276;28;45527;-64
2023/09/14 08:20:28;;;;;;;2.33;1.52;;;24.20;54.00;;;;;;5075787;27;45541;-63
2023/09/14 08:22:55;;;;;;;3.53;2.00;;;24.20;53.70;;;;;;5075720;27;47820;-65
2023/09/14 08:25:22;;;;;;;2.83;1.90;;;24.20;54.50;;;;;;5078168;27;45460;-64
2023/09/14 08:27:49;;;;;;;6.43;2.10;;;24.20;54.50;;;;;;5076475;27;45447;-65
2023/09/14 08:30:16;;;;;;;5.88;1.88;;;24.20;54.40;;;;;;5073600;27;45659;-64
2023/09/14 08:32:43;;;;;;;5.53;2.47;;;24.20;54.50;;;;;;5078535;27;45511;-64
2023/09/14 08:35:24;;;;;;;3.53;2.30;;;24.20;54.70;;;;;;5074790;28;45320;-65
2023/09/14 08:37:52;;;;;;;6.40;1.90;;;24.20;55.10;;;;;;5086757;27;45387;-64
2023/09/14 08:40:19;;;;;;;3.63;2.50;;;24.20;54.60;;;;;;5078590;27;45591;-64
2023/09/14 08:42:48;;;;;;;3.58;2.10;;;24.20;54.90;;;;;;5073303;27;46515;-65
2023/09/14 08:45:15;;;;;;;4.20;2.22;;;24.20;54.50;;;;;;5077551;27;44846;-66
2023/09/14 08:47:42;;;;;;;5.55;1.90;;;24.20;55.20;;;;;;5072888;27;45601;-66
2023/09/14 08:50:13;;;;;;;7.35;2.20;;;24.20;54.60;;;;;;5078056;27;45203;-65
2023/09/14 08:52:41;;;;;;;4.07;2.40;;;24.20;54.50;;;;;;5081566;27;46676;-64
2023/09/14 08:55:09;;;;;;;5.10;1.98;;;24.30;54.60;;;;;;5083284;27;45406;-65
2023/09/14 08:57:37;;;;;;;2.97;2.20;;;24.20;54.50;;;;;;5083017;27;45364;-65
2023/09/14 09:00:08;;;;;;;6.32;2.15;;;24.30;54.50;;;;;;5085544;27;45288;-64
2023/09/14 09:02:35;;;;;;;8.13;3.15;;;24.20;54.50;;;;;;5085070;27;45306;-64
2023/09/14 09:05:03;;;;;;;4.65;2.15;;;24.30;54.60;;;;;;5082868;27;45576;-65
2023/09/14 09:07:30;;;;;;;8.23;2.63;;;24.30;54.70;;;;;;5087205;27;45367;-65
2023/09/14 09:09:58;;;;;;;3.00;2.05;;;24.30;54.40;;;;;;5084165;27;45514;-66
2023/09/14 09:12:25;;;;;;;4.13;2.13;;;24.30;54.30;;;;;;5085199;27;46816;-66
2023/09/14 09:14:52;;;;;;;3.28;2.65;;;24.30;54.30;;;;;;5082745;27;45421;-65
2023/09/14 09:17:19;;;;;;;1.98;1.83;;;24.30;54.30;;;;;;5073249;27;45509;-66
2023/09/14 09:19:46;;;;;;;4.13;1.90;;;24.30;54.20;;;;;;5085637;27;45548;-66
2023/09/14 09:22:14;;;;;;;4.35;2.10;;;24.30;54.20;;;;;;5076571;27;46644;-65
2023/09/14 09:24:42;;;;;;;6.95;2.60;;;24.30;54.30;;;;;;5077074;27;45485;-66
2023/09/14 09:27:28;;;;;;;3.72;2.10;;;24.40;54.30;;;;;;5074647;27;45444;-65
2023/09/14 09:29:58;;;;;;;3.38;2.13;;;24.40;54.20;;;;;;5084196;27;45446;-65
2023/09/14 09:32:25;;;;;;;2.88;2.10;;;24.40;54.00;;;;;;5086777;27;45408;-65
2023/09/14 09:34:52;;;;;;;2.40;2.20;;;24.40;53.90;;;;;;5084416;27;45200;-66
2023/09/14 09:37:19;;;;;;;2.38;2.17;;;24.50;54.00;;;;;;5084853;27;45352;-66
2023/09/14 09:39:45;;;;;;;3.22;1.95;;;24.50;53.90;;;;;;5084533;27;45465;-66
2023/09/14 09:42:13;;;;;;;2.17;1.90;;;24.50;53.90;;;;;;5088195;27;47302;-65
2023/09/14 09:44:41;;;;;;;4.47;2.50;;;24.50;53.70;;;;;;5084789;27;45469;-65
2023/09/14 09:47:12;;;;;;;2.55;1.92;;;24.50;53.70;;;;;;5083471;27;45535;-66
2023/09/14 09:49:39;;;;;;;2.55;1.83;;;24.60;53.60;;;;;;5084236;27;45467;-66
2023/09/14 09:52:07;;;;;;;2.03;1.90;;;24.60;53.50;;;;;;5085667;27;46740;-66
2023/09/14 09:54:35;;;;;;;5.15;2.05;;;24.70;53.40;;;;;;5083451;27;45473;-65
2023/09/14 09:57:03;;;;;;;3.00;2.20;;;24.70;53.50;;;;;;5080034;27;45497;-66
2023/09/14 09:59:31;;;;;;;8.65;3.60;;;24.70;54.40;;;;;;5080698;27;45633;-66
2023/09/14 10:01:59;;;;;;;5.53;3.83;;;24.60;54.90;;;;;;5086650;27;45601;-66
2023/09/14 10:04:27;;;;;;;5.88;3.90;;;24.60;55.30;;;;;;5081134;27;45495;-66
2023/09/14 10:06:55;;;;;;;6.03;4.03;;;24.60;55.00;;;;;;5085449;27;45476;-65
2023/09/14 10:09:22;;;;;;;5.05;3.95;;;24.70;55.10;;;;;;5082311;27;45607;-65
2023/09/14 10:11:51;;;;;;;6.13;5.13;;;24.60;54.80;;;;;;5086017;27;45450;-64
2023/09/14 10:14:19;;;;;;;5.22;4.28;;;24.70;55.80;;;;;;5084313;27;45369;-65
2023/09/14 10:16:46;;;;;;;5.90;4.75;;;24.70;55.70;;;;;;5094269;27;45371;-65
2023/09/14 10:19:14;;;;;;;6.22;4.20;;;24.60;55.80;;;;;;5086018;27;45170;-65
2023/09/14 10:21:41;;;;;;;5.75;4.18;;;24.70;55.90;;;;;;5088826;27;45646;-64
2023/09/14 10:24:08;;;;;;;6.72;4.10;;;24.70;55.80;;;;;;5081904;27;45519;-66
2023/09/14 10:26:36;;;;;;;5.90;4.25;;;24.80;55.80;;;;;;5087405;27;45422;-64
2023/09/14 10:29:05;;;;;;;5.82;4.13;;;24.80;55.80;;;;;;5083693;27;45176;-64
2023/09/14 10:31:31;;;;;;;6.15;4.40;;;24.80;55.30;;;;;;5085125;27;47320;-65
2023/09/14 10:33:59;;;;;;;6.88;5.03;;;24.80;56.50;;;;;;5084625;27;45409;-65
2023/09/14 10:36:29;;;;;;;5.18;4.28;;;24.80;56.00;;;;;;5081654;27;45720;-64
2023/09/14 10:38:56;;;;;;;5.70;3.75;;;24.80;55.90;;;;;;5085401;27;45547;-65
2023/09/14 10:41:23;;;;;;;4.70;4.13;;;24.80;56.00;;;;;;5087317;27;46274;-65
2023/09/14 10:43:50;;;;;;;6.60;4.13;;;24.80;55.90;;;;;;5087505;27;45462;-64
2023/09/14 10:46:18;;;;;;;5.72;4.43;;;24.80;56.10;;;;;;5087040;27;45284;-65
2023/09/14 10:48:45;;;;;;;4.72;3.95;;;24.80;56.30;;;;;;5087432;27;45311;-65
2023/09/14 10:51:13;;;;;;;6.32;3.70;;;24.80;56.30;;;;;;5084770;27;46257;-66
2023/09/14 10:53:41;;;;;;;6.10;4.53;;;24.80;56.10;;;;;;5087601;27;45370;-65
2023/09/14 10:56:20;;;;;;;4.70;3.70;;;24.80;56.40;;;;;;5088101;27;45342;-65
2023/09/14 10:58:50;;;;;;;4.28;3.65;;;24.90;55.90;;;;;;5087925;27;45404;-65
2023/09/14 11:01:23;;;;;;;5.15;3.97;;;24.90;56.10;;;;;;5086860;27;45521;-65
2023/09/14 11:04:10;;;;;;;4.57;3.50;;;24.90;55.80;;;;;;5088746;27;45343;-65
2023/09/14 11:06:47;;;;;;;4.43;3.90;;;25.00;55.80;;;;;;5087618;27;45489;-66
2023/09/14 11:09:16;;;;;;;6.15;5.00;;;25.00;56.00;;;;;;5087005;27;45704;-65
2023/09/14 11:11:43;;;;;;;4.93;4.40;;;25.00;56.10;;;;;;5085370;27;46188;-65
2023/09/14 11:14:11;;;;;;;5.22;3.58;;;25.00;56.10;;;;;;5076134;28;45273;-65
2023/09/14 11:16:47;;;;;;;5.55;4.13;;;25.00;56.00;;;;;;5085719;27;45368;-66
2023/09/14 11:19:43;;;;;;;6.07;5.00;;;25.00;56.10;;;;;;5087857;27;45513;-65
2023/09/14 11:22:12;;;;;;;6.25;4.47;;;25.00;56.00;;;;;;5087729;27;46451;-65
2023/09/14 11:24:41;;;;;;;4.85;4.35;;;25.10;55.80;;;;;;5085436;27;45470;-65
2023/09/14 11:27:09;;;;;;;8.13;5.05;;;25.10;56.30;;;;;;5087274;27;45448;-66
2023/09/14 11:29:35;;;;;;;6.95;5.15;;;25.00;56.70;;;;;;5085727;27;45459;-65
2023/09/14 11:32:06;;;;;;;6.20;5.25;;;25.00;56.90;;;;;;5089193;27;45564;-66
2023/09/14 11:34:32;;;;;;;4.45;4.05;;;25.00;56.90;;;;;;5078486;28;45499;-65
2023/09/14 11:36:59;;;;;;;6.78;6.07;;;25.10;56.50;;;;;;5086374;27;45327;-65
2023/09/14 11:39:26;;;;;;;7.28;5.97;;;25.20;56.30;;;;;;5081748;27;45633;-65
2023/09/14 11:42:00;;;;;;;6.82;5.85;;;25.30;55.80;;;;;;5089517;27;45534;-65
2023/09/14 11:44:29;;;;;;;6.15;5.05;;;25.30;55.90;;;;;;5087119;27;45293;-65
2023/09/14 11:46:56;;;;;;;6.63;4.80;;;25.30;55.60;;;;;;5086523;27;45196;-66
2023/09/14 11:49:28;;;;;;;6.63;5.20;;;25.40;55.40;;;;;;5087147;27;45446;-64
2023/09/14 11:51:55;;;;;;;4.95;4.38;;;25.50;55.20;;;;;;5083550;27;46814;-65
2023/09/14 11:54:22;;;;;;;5.93;4.60;;;25.50;54.80;;;;;;5086040;27;45370;-63
2023/09/14 11:56:48;;;;;;;4.40;4.00;;;25.60;55.40;;;;;;5084205;27;45193;-64
2023/09/14 11:59:35;;;;;;;6.40;4.00;;;25.70;54.90;;;;;;5084830;27;45490;-64
2023/09/14 12:02:05;;;;;;;4.72;3.42;;;25.80;54.30;;;;;;5083543;27;46365;-64
2023/09/14 12:04:34;;;;;;;4.20;3.80;;;25.90;53.90;;;;;;5082699;27;45283;-65
2023/09/14 12:07:03;;;;;;;4.38;3.67;;;25.90;54.30;;;;;;5087627;27;45560;-64
2023/09/14 12:09:37;;;;;;;4.45;4.05;;;25.90;54.50;;;;;;5085252;27;45398;-64
2023/09/14 12:12:04;;;;;;;4.45;3.30;;;25.80;54.60;;;;;;5088652;27;46128;-64
2023/09/14 12:14:36;;;;;;;5.40;4.10;;;25.80;54.30;;;;;;5081111;27;45410;-68
2023/09/14 12:17:03;;;;;;;7.15;3.88;;;25.90;54.40;;;;;;5081946;27;45377;-64
2023/09/14 12:19:31;;;;;;;5.55;3.85;;;26.00;54.10;;;;;;5066691;28;45273;-64
2023/09/14 12:21:57;;;;;;;4.10;3.30;;;26.20;53.70;;;;;;5081016;27;47299;-65
2023/09/14 12:24:24;;;;;;;10.65;3.45;;;26.30;53.30;;;;;;5085248;27;45582;-63
2023/09/14 12:26:53;;;;;;;4.28;3.38;;;26.40;53.40;;;;;;5086495;27;45368;-63
2023/09/14 12:29:20;;;;;;;3.53;3.17;;;26.40;53.10;;;;;;5086889;27;45350;-63
2023/09/14 12:31:48;;;;;;;3.88;3.10;;;26.40;53.00;;;;;;5081253;27;45170;-63
2023/09/14 12:34:15;;;;;;;3.53;3.22;;;26.50;53.00;;;;;;5086058;27;45411;-64
2023/09/14 12:36:44;;;;;;;6.22;3.30;;;26.60;52.90;;;;;;5085129;27;45371;-65
2023/09/14 12:39:13;;;;;;;5.35;3.03;;;26.50;52.90;;;;;;5083226;28;45506;-64
2023/09/14 12:41:40;;;;;;;3.90;3.08;;;26.40;53.00;;;;;;5072774;27;46355;-64
2023/09/14 12:44:07;;;;;;;5.55;3.13;;;26.40;53.60;;;;;;5086058;27;45365;-64
2023/09/14 12:46:34;;;;;;;2.90;2.60;;;26.40;52.90;;;;;;5071820;27;45300;-64
2023/09/14 12:49:02;;;;;;;3.88;2.95;;;26.50;53.00;;;;;;5082873;27;45416;-64
2023/09/14 12:51:29;;;;;;;3.22;2.92;;;26.60;52.70;;;;;;5080634;28;46502;-62